createdAt,value
2017-11-21T00:02:25.055Z,11.60
2017-11-21T00:04:52.636Z,9.70
2017-11-21T00:07:20.192Z,10.73
2017-11-21T00:09:47.765Z,11.30
2017-11-21T00:12:15.329Z,11.60
2017-11-21T00:14:42.903Z,11.20
2017-11-21T00:17:10.483Z,9.63
2017-11-21T00:19:38.057Z,10.57
2017-11-21T00:22:06.434Z,10.53
2017-11-21T00:24:34.778Z,10.60
2017-11-21T00:27:02.337Z,10.30
2017-11-21T00:29:29.925Z,10.97
2017-11-21T00:31:57.500Z,10.00
2017-11-21T00:34:25.107Z,10.13
2017-11-21T00:36:52.697Z,11.13
2017-11-21T00:39:20.251Z,10.13
2017-11-21T00:41:47.822Z,10.93
2017-11-21T00:44:15.431Z,10.57
2017-11-21T00:46:43.017Z,10.87
2017-11-21T00:49:10.599Z,10.10
2017-11-21T00:51:38.182Z,10.33
2017-11-21T00:54:05.754Z,11.67
2017-11-21T00:56:34.130Z,10.87
2017-11-21T00:59:01.738Z,10.80
2017-11-21T01:01:29.341Z,10.90
2017-11-21T01:03:56.911Z,12.93
2017-11-21T01:06:24.507Z,11.87
2017-11-21T01:08:52.067Z,12.50
2017-11-21T01:11:19.660Z,11.87
2017-11-21T01:13:48.062Z,14.13
2017-11-21T01:16:15.616Z,13.03
2017-11-21T01:18:43.202Z,13.97
2017-11-21T01:21:10.750Z,13.57
2017-11-21T01:23:38.345Z,15.63
2017-11-21T01:26:05.915Z,13.80
2017-11-21T01:28:35.164Z,14.57
2017-11-21T01:31:02.735Z,13.57
2017-11-21T01:33:30.379Z,15.30
2017-11-21T01:35:57.935Z,13.90
2017-11-21T01:38:25.523Z,12.83
2017-11-21T01:40:53.107Z,13.33
2017-11-21T01:43:21.500Z,12.97
2017-11-21T01:45:49.859Z,11.87
2017-11-21T01:48:17.425Z,11.47
2017-11-21T01:50:44.991Z,12.50
2017-11-21T01:53:12.546Z,11.97
2017-11-21T01:55:40.160Z,11.80
2017-11-21T01:58:07.707Z,9.90
2017-11-21T02:00:35.293Z,11.63
2017-11-21T02:03:04.664Z,11.10
2017-11-21T02:05:33.008Z,11.80
2017-11-21T02:08:00.582Z,10.30
2017-11-21T02:10:28.176Z,10.63
2017-11-21T02:12:55.768Z,10.47
2017-11-21T02:15:23.328Z,11.47
2017-11-21T02:17:50.904Z,13.00
2017-11-21T02:20:18.498Z,14.70
2017-11-21T02:22:46.220Z,13.03
2017-11-21T02:25:13.799Z,15.20
2017-11-21T02:27:41.364Z,17.10
2017-11-21T02:30:08.945Z,17.27
2017-11-21T02:32:37.046Z,18.30
2017-11-21T02:35:04.602Z,20.70
2017-11-21T02:37:32.958Z,17.77
2017-11-21T02:40:00.526Z,20.27
2017-11-21T02:42:28.852Z,20.20
2017-11-21T02:44:56.424Z,19.83
2017-11-21T02:47:23.971Z,21.40
2017-11-21T02:49:51.544Z,19.67
2017-11-21T02:52:19.093Z,21.33
2017-11-21T02:54:46.676Z,22.70
2017-11-21T02:57:14.273Z,20.50
2017-11-21T02:59:41.805Z,21.40
2017-11-21T03:02:09.440Z,22.40
2017-11-21T03:04:37.012Z,21.00
2017-11-21T03:07:04.575Z,24.90
2017-11-21T03:09:32.151Z,21.00
2017-11-21T03:11:59.720Z,21.13
2017-11-21T03:14:27.299Z,22.40
2017-11-21T03:16:54.864Z,19.83
2017-11-21T03:19:23.214Z,19.90
2017-11-21T03:22:02.683Z,20.43
2017-11-21T03:24:42.841Z,19.13
2017-11-21T03:27:13.153Z,19.50
2017-11-21T03:29:40.710Z,16.57
2017-11-21T03:32:08.384Z,19.83
2017-11-21T03:34:36.026Z,17.80
2017-11-21T03:37:03.609Z,17.50
2017-11-21T03:39:31.194Z,17.20
2017-11-21T03:41:59.526Z,16.73
2017-11-21T03:44:27.120Z,17.83
2017-11-21T03:46:54.678Z,15.20
2017-11-21T03:49:22.242Z,15.30
2017-11-21T03:51:49.831Z,15.30
2017-11-21T03:54:17.414Z,15.47
2017-11-21T03:56:45.078Z,15.10
2017-11-21T03:59:12.639Z,15.90
2017-11-21T04:01:40.215Z,14.77
2017-11-21T04:04:07.811Z,15.40
2017-11-21T04:06:35.380Z,16.17
2017-11-21T04:09:02.992Z,14.50
2017-11-21T04:11:30.546Z,14.60
2017-11-21T04:13:58.135Z,14.00
2017-11-21T04:16:25.697Z,14.73
2017-11-21T04:18:53.270Z,13.80
2017-11-21T04:21:20.935Z,14.03
2017-11-21T04:23:49.252Z,14.20
2017-11-21T04:26:16.827Z,14.60
2017-11-21T04:28:44.399Z,14.33
2017-11-21T04:31:11.971Z,15.37
2017-11-21T04:33:39.518Z,15.60
2017-11-21T04:36:07.195Z,15.67
2017-11-21T04:38:34.760Z,14.30
2017-11-21T04:41:02.341Z,15.03
2017-11-21T04:43:29.960Z,13.53
2017-11-21T04:45:57.525Z,13.43
2017-11-21T04:48:25.090Z,14.30
2017-11-21T04:50:52.815Z,15.17
2017-11-21T04:53:20.357Z,13.00
2017-11-21T04:55:47.917Z,13.03
2017-11-21T04:58:15.499Z,14.40
2017-11-21T05:00:43.848Z,14.43
2017-11-21T05:03:11.407Z,13.03
2017-11-21T05:05:38.975Z,14.13
2017-11-21T05:08:06.534Z,13.13
2017-11-21T05:10:34.101Z,13.30
2017-11-21T05:13:01.667Z,14.03
2017-11-21T05:15:29.255Z,13.57
2017-11-21T05:17:57.600Z,12.60
2017-11-21T05:20:25.158Z,12.73
2017-11-21T05:22:52.738Z,11.63
2017-11-21T05:25:21.078Z,13.27
2017-11-21T05:27:48.666Z,11.00
2017-11-21T05:30:17.009Z,12.30
2017-11-21T05:32:56.526Z,11.93
2017-11-21T05:35:24.879Z,12.63
2017-11-21T05:37:52.443Z,11.50
2017-11-21T05:40:20.350Z,10.90
2017-11-21T05:42:47.963Z,12.10
2017-11-21T05:45:15.527Z,11.67
2017-11-21T05:47:43.155Z,10.83
2017-11-21T05:50:10.707Z,12.03
2017-11-21T05:52:38.304Z,11.73
2017-11-21T05:55:05.875Z,10.70
2017-11-21T05:57:33.448Z,10.23
2017-11-21T06:00:01.122Z,11.87
2017-11-21T06:02:29.460Z,11.10
2017-11-21T06:04:57.030Z,11.40
2017-11-21T06:07:24.645Z,11.60
2017-11-21T06:09:52.960Z,11.70
2017-11-21T06:12:20.555Z,12.83
2017-11-21T06:14:48.118Z,12.07
2017-11-21T06:17:16.449Z,12.30
2017-11-21T06:19:45.162Z,13.40
2017-11-21T06:22:12.731Z,12.63
2017-11-21T06:24:40.322Z,10.97
2017-11-21T06:27:08.759Z,11.37
2017-11-21T06:29:36.336Z,13.77
2017-11-21T06:32:04.005Z,12.27
2017-11-21T06:34:31.602Z,12.00
2017-11-21T06:36:59.315Z,12.70
2017-11-21T06:39:26.876Z,12.23
2017-11-21T06:41:54.701Z,12.17
2017-11-21T06:44:22.250Z,11.77
2017-11-21T06:46:49.895Z,11.70
2017-11-21T06:49:18.240Z,11.37
2017-11-21T06:51:45.806Z,10.80
2017-11-21T06:54:13.395Z,10.17
2017-11-21T06:56:41.720Z,8.70
2017-11-21T06:59:09.299Z,8.30
2017-11-21T07:01:36.904Z,7.47
2017-11-21T07:04:05.232Z,6.53
2017-11-21T07:06:32.992Z,5.60
2017-11-21T07:09:00.561Z,5.10
2017-11-21T07:11:28.122Z,8.10
2017-11-21T07:13:55.737Z,5.10
2017-11-21T07:16:24.082Z,4.30
2017-11-21T07:18:51.684Z,4.70
2017-11-21T07:21:20.019Z,6.03
2017-11-21T07:23:47.568Z,4.90
2017-11-21T07:26:15.135Z,4.03
2017-11-21T07:28:42.687Z,3.50
2017-11-21T07:31:10.271Z,4.30
2017-11-21T07:33:37.866Z,4.37
2017-11-21T07:36:06.257Z,4.00
2017-11-21T07:38:33.819Z,3.60
2017-11-21T07:41:01.411Z,3.57
2017-11-21T07:43:29.008Z,3.43
2017-11-21T07:45:56.583Z,3.40
2017-11-21T07:48:24.901Z,3.30
2017-11-21T07:50:52.643Z,3.37
2017-11-21T07:53:20.199Z,3.10
2017-11-21T07:55:47.892Z,3.50
2017-11-21T07:58:15.454Z,3.40
2017-11-21T08:00:43.044Z,3.90
2017-11-21T08:03:12.322Z,3.20
2017-11-21T08:05:39.898Z,3.23
2017-11-21T08:08:07.458Z,3.77
2017-11-21T08:10:35.005Z,3.53
2017-11-21T08:13:02.590Z,3.80
2017-11-21T08:15:30.147Z,3.33
2017-11-21T08:17:58.644Z,3.50
2017-11-21T08:20:26.195Z,3.27
2017-11-21T08:22:53.780Z,3.27
2017-11-21T08:25:21.337Z,5.50
2017-11-21T08:27:48.917Z,4.00
2017-11-21T08:30:17.229Z,6.13
2017-11-21T08:32:44.787Z,4.20
2017-11-21T08:35:12.401Z,3.80
2017-11-21T08:37:39.963Z,4.00
2017-11-21T08:40:07.551Z,3.87
2017-11-21T08:42:35.110Z,3.77
2017-11-21T08:45:02.684Z,4.00
2017-11-21T08:47:30.231Z,4.17
2017-11-21T08:49:57.799Z,4.07
2017-11-21T08:52:25.373Z,4.00
2017-11-21T08:54:53.159Z,4.10
2017-11-21T08:57:20.748Z,4.53
2017-11-21T08:59:52.695Z,6.00
2017-11-21T09:02:20.267Z,4.10
2017-11-21T09:04:47.845Z,4.93
2017-11-21T09:07:16.199Z,4.13
2017-11-21T09:09:43.754Z,4.90
2017-11-21T09:12:12.148Z,5.60
2017-11-21T09:14:39.720Z,5.37
2017-11-21T09:17:07.671Z,7.47
2017-11-21T09:19:35.246Z,5.70
2017-11-21T09:22:03.599Z,7.47
2017-11-21T09:24:31.138Z,6.57
2017-11-21T09:26:58.713Z,5.50
2017-11-21T09:29:26.293Z,5.03
2017-11-21T09:32:11.783Z,5.97
2017-11-21T09:34:39.325Z,5.37
2017-11-21T09:37:06.912Z,6.40
2017-11-21T09:39:34.475Z,5.90
2017-11-21T09:42:02.047Z,6.27
2017-11-21T09:44:29.617Z,8.93
2017-11-21T09:46:57.171Z,6.17
2017-11-21T09:49:25.524Z,5.70
2017-11-21T09:51:53.079Z,5.80
2017-11-21T09:54:20.643Z,5.63
2017-11-21T09:56:48.212Z,6.40
2017-11-21T09:59:15.767Z,6.87
2017-11-21T10:01:44.554Z,6.60
2017-11-21T10:04:12.110Z,5.73
2017-11-21T10:06:39.688Z,6.37
2017-11-21T10:09:08.042Z,6.13
2017-11-21T10:11:35.606Z,5.90
2017-11-21T10:14:03.263Z,7.10
2017-11-21T10:16:30.880Z,6.80
2017-11-21T10:18:58.440Z,5.23
2017-11-21T10:21:26.794Z,5.40
2017-11-21T10:23:54.524Z,5.50
2017-11-21T10:26:22.115Z,6.03
2017-11-21T10:28:49.682Z,5.27
2017-11-21T10:31:17.226Z,4.87
2017-11-21T10:33:44.795Z,4.60
2017-11-21T10:36:12.359Z,4.67
2017-11-21T10:38:39.935Z,4.63
2017-11-21T10:41:07.486Z,4.07
2017-11-21T10:43:35.064Z,4.03
2017-11-21T10:46:03.443Z,3.83
2017-11-21T10:48:31.060Z,3.57
2017-11-21T10:50:58.643Z,4.77
2017-11-21T10:53:26.764Z,3.50
2017-11-21T10:55:55.106Z,2.87
2017-11-21T10:58:23.455Z,3.07
2017-11-21T11:00:51.044Z,2.17
2017-11-21T11:03:18.607Z,2.20
2017-11-21T11:05:46.194Z,1.80
2017-11-21T11:08:13.735Z,2.60
2017-11-21T11:10:41.838Z,3.00
2017-11-21T11:13:10.163Z,2.47
2017-11-21T11:15:37.751Z,2.50
2017-11-21T11:18:05.304Z,1.93
2017-11-21T11:20:32.888Z,2.07
2017-11-21T11:23:01.194Z,1.90
2017-11-21T11:25:28.769Z,1.60
2017-11-21T11:27:56.351Z,1.90
2017-11-21T11:30:23.923Z,1.80
2017-11-21T11:32:51.491Z,1.43
2017-11-21T11:35:19.130Z,1.47
2017-11-21T11:37:46.719Z,2.03
2017-11-21T11:40:14.299Z,1.70
2017-11-21T11:42:41.837Z,1.33
2017-11-21T11:45:09.430Z,1.73
2017-11-21T11:47:37.768Z,1.70
2017-11-21T11:50:05.322Z,1.80
2017-11-21T11:52:32.927Z,1.40
2017-11-21T11:55:01.262Z,1.60
2017-11-21T11:57:28.845Z,1.30
2017-11-21T11:59:56.424Z,1.50
2017-11-21T12:02:23.965Z,1.40
2017-11-21T12:04:51.538Z,5.10
2017-11-21T12:07:19.084Z,7.23
2017-11-21T12:09:46.714Z,2.13
2017-11-21T12:12:14.284Z,1.10
2017-11-21T12:14:41.864Z,1.40
2017-11-21T12:17:09.482Z,1.20
2017-11-21T12:19:37.092Z,1.20
2017-11-21T12:22:04.642Z,1.23
2017-11-21T12:24:32.221Z,2.10
2017-11-21T12:26:59.784Z,1.80
2017-11-21T12:29:27.875Z,1.43
2017-11-21T12:31:56.220Z,1.23
2017-11-21T12:34:23.785Z,1.30
2017-11-21T12:36:51.376Z,2.37
2017-11-21T12:39:18.942Z,1.50
2017-11-21T12:41:47.283Z,1.87
2017-11-21T12:44:14.856Z,2.00
2017-11-21T12:46:42.412Z,2.10
2017-11-21T12:49:09.987Z,1.60
2017-11-21T12:51:37.571Z,1.60
2017-11-21T12:54:06.408Z,1.73
2017-11-21T12:56:33.964Z,1.30
2017-11-21T12:59:01.511Z,2.73
2017-11-21T13:01:29.100Z,2.00
2017-11-21T13:03:56.655Z,3.03
2017-11-21T13:06:24.875Z,2.43
2017-11-21T13:08:53.202Z,4.97
2017-11-21T13:11:20.850Z,2.23
2017-11-21T13:13:49.435Z,2.50
2017-11-21T13:16:17.918Z,2.40
2017-11-21T13:18:45.811Z,2.50
2017-11-21T13:21:13.709Z,2.90
2017-11-21T13:27:04.014Z,4.13
2017-11-21T13:29:31.895Z,2.40
2017-11-21T13:32:14.937Z,4.17
2017-11-21T13:34:43.270Z,2.67
2017-11-21T13:37:10.855Z,3.10
2017-11-21T13:39:38.426Z,2.80
2017-11-21T13:42:06.025Z,4.20
2017-11-21T13:44:34.155Z,2.93
2017-11-21T13:47:01.770Z,4.77
2017-11-21T13:49:29.335Z,3.43
2017-11-21T13:51:57.125Z,3.57
2017-11-21T13:54:24.683Z,3.60
2017-11-21T13:56:52.404Z,3.40
2017-11-21T13:59:20.766Z,3.40
2017-11-21T14:01:49.123Z,3.80
2017-11-21T14:04:16.686Z,4.47
2017-11-21T14:06:44.268Z,3.60
2017-11-21T14:09:12.654Z,3.37
2017-11-21T14:11:40.981Z,4.27
2017-11-21T14:14:08.531Z,4.50
2017-11-21T14:16:36.250Z,4.30
2017-11-21T14:19:03.829Z,5.17
2017-11-21T14:21:31.451Z,4.50
2017-11-21T14:23:59.037Z,4.73
2017-11-21T14:26:26.805Z,4.97
2017-11-21T14:28:54.457Z,5.40
2017-11-21T14:31:21.999Z,5.70
2017-11-21T14:33:49.603Z,5.03
2017-11-21T14:36:18.198Z,5.40
2017-11-21T14:38:45.739Z,5.83
2017-11-21T14:41:14.239Z,5.23
2017-11-21T14:43:42.024Z,5.40
2017-11-21T14:46:09.596Z,5.27
2017-11-21T14:48:37.161Z,5.63
2017-11-21T14:51:04.748Z,5.77
2017-11-21T14:53:32.308Z,5.37
2017-11-21T14:55:59.875Z,5.80
2017-11-21T14:58:27.464Z,5.93
2017-11-21T15:00:55.045Z,6.00
2017-11-21T15:03:22.601Z,7.10
2017-11-21T15:05:50.175Z,5.90
2017-11-21T15:08:18.271Z,6.73
2017-11-21T15:10:46.060Z,6.77
2017-11-21T15:13:14.443Z,6.27
2017-11-21T15:15:42.855Z,6.57
2017-11-21T15:18:10.498Z,6.40
2017-11-21T15:20:38.859Z,5.80
2017-11-21T15:23:07.204Z,6.27
2017-11-21T15:25:34.748Z,6.47
2017-11-21T15:28:02.356Z,6.80
2017-11-21T15:30:29.952Z,7.13
2017-11-21T15:32:57.532Z,6.57
2017-11-21T15:35:25.127Z,6.37
2017-11-21T15:37:52.704Z,6.43
2017-11-21T15:40:21.158Z,7.40
2017-11-21T15:42:48.733Z,7.57
2017-11-21T15:45:16.471Z,6.10
2017-11-21T15:47:44.043Z,7.00
2017-11-21T15:50:12.691Z,7.07
2017-11-21T15:52:40.435Z,6.40
2017-11-21T15:55:08.000Z,6.60
2017-11-21T15:57:35.577Z,6.47
2017-11-21T16:00:03.295Z,8.40
2017-11-21T16:02:30.879Z,8.40
2017-11-21T16:04:58.428Z,6.57
2017-11-21T16:07:26.020Z,6.60
2017-11-21T16:09:53.640Z,7.20
2017-11-21T16:12:22.083Z,6.90
2017-11-21T16:14:49.652Z,6.67
2017-11-21T16:17:17.236Z,7.57
2017-11-21T16:19:44.813Z,6.50
2017-11-21T16:22:13.205Z,6.07
2017-11-21T16:24:40.818Z,6.27
2017-11-21T16:27:08.379Z,6.47
2017-11-21T16:29:35.922Z,6.73
2017-11-21T16:32:03.508Z,7.03
2017-11-21T16:34:31.134Z,7.07
2017-11-21T16:36:58.691Z,7.33
2017-11-21T16:39:26.255Z,6.20
2017-11-21T16:41:53.835Z,7.23
2017-11-21T16:44:21.432Z,6.87
2017-11-21T16:46:48.996Z,6.83
2017-11-21T16:49:16.638Z,6.97
2017-11-21T16:51:44.202Z,6.60
2017-11-21T16:54:11.800Z,6.37
2017-11-21T16:56:39.382Z,6.80
2017-11-21T16:59:06.975Z,7.40
2017-11-21T17:01:35.346Z,6.20
2017-11-21T17:04:03.697Z,6.43
2017-11-21T17:06:31.275Z,6.77
2017-11-21T17:08:58.847Z,6.43
2017-11-21T17:11:27.276Z,6.17
2017-11-21T17:13:54.864Z,7.50
2017-11-21T17:16:22.439Z,6.77
2017-11-21T17:18:50.016Z,7.37
2017-11-21T17:21:18.351Z,6.93
2017-11-21T17:23:45.935Z,5.70
2017-11-21T17:26:13.492Z,7.60
2017-11-21T17:28:41.092Z,6.17
2017-11-21T17:31:08.712Z,6.67
2017-11-21T17:33:37.049Z,6.43
2017-11-21T17:36:04.630Z,6.77
2017-11-21T17:38:32.191Z,8.27
2017-11-21T17:40:59.905Z,6.80
2017-11-21T17:43:27.682Z,7.70
2017-11-21T17:45:55.258Z,7.63
2017-11-21T17:48:22.892Z,7.70
2017-11-21T17:50:50.476Z,7.60
2017-11-21T17:53:18.068Z,7.00
2017-11-21T17:55:46.518Z,7.17
2017-11-21T17:58:14.088Z,7.87
2017-11-21T18:00:41.867Z,7.70
2017-11-21T18:03:10.232Z,7.90
2017-11-21T18:05:37.831Z,7.73
2017-11-21T18:08:05.439Z,7.90
2017-11-21T18:10:33.272Z,9.90
2017-11-21T18:13:02.396Z,7.63
2017-11-21T18:15:29.960Z,7.97
2017-11-21T18:17:58.064Z,7.37
2017-11-21T18:20:25.758Z,7.00
2017-11-21T18:22:54.108Z,9.20
2017-11-21T18:25:21.698Z,7.73
2017-11-21T18:27:50.031Z,8.10
2017-11-21T18:30:17.602Z,8.60
2017-11-21T18:32:57.131Z,7.17
2017-11-21T18:35:25.667Z,8.07
2017-11-21T18:37:53.302Z,7.80
2017-11-21T18:40:20.896Z,9.40
2017-11-21T18:42:49.237Z,7.50
2017-11-21T18:45:17.477Z,8.43
2017-11-21T18:47:45.102Z,8.80
2017-11-21T18:50:25.530Z,8.50
2017-11-21T18:52:53.148Z,8.30
2017-11-21T18:55:21.116Z,7.30
2017-11-21T18:57:48.720Z,7.00
2017-11-21T19:00:16.308Z,7.60
2017-11-21T19:02:43.873Z,8.10
2017-11-21T19:05:12.310Z,9.27
2017-11-21T19:07:39.885Z,8.33
2017-11-21T19:10:08.323Z,7.77
2017-11-21T19:12:35.911Z,7.57
2017-11-21T19:15:03.505Z,8.60
2017-11-21T19:17:31.188Z,8.27
2017-11-21T19:19:58.744Z,7.27
2017-11-21T19:22:29.090Z,7.23
2017-11-21T19:24:57.452Z,6.80
2017-11-21T19:27:25.133Z,8.23
2017-11-21T19:29:52.730Z,7.37
2017-11-21T19:32:21.113Z,7.20
2017-11-21T19:34:49.931Z,8.33
2017-11-21T19:37:28.234Z,7.97
2017-11-21T19:39:55.981Z,8.87
2017-11-21T19:42:24.495Z,8.90
2017-11-21T19:45:04.461Z,7.90
2017-11-21T19:47:32.400Z,10.00
2017-11-21T19:50:00.004Z,9.73
2017-11-21T19:52:28.157Z,9.87
2017-11-21T19:54:55.786Z,10.23
2017-11-21T19:57:23.543Z,8.50
2017-11-21T19:59:51.968Z,8.57
2017-11-21T20:02:19.901Z,10.00
2017-11-21T20:04:48.407Z,10.70
2017-11-21T20:07:16.427Z,10.17
2017-11-21T20:09:44.525Z,9.73
2017-11-21T20:12:13.258Z,9.60
2017-11-21T20:14:43.280Z,8.20
2017-11-21T20:17:12.809Z,9.23
2017-11-21T20:19:41.182Z,8.80
2017-11-21T20:22:09.543Z,10.77
2017-11-21T20:24:37.943Z,8.80
2017-11-21T20:27:05.708Z,9.10
2017-11-21T20:29:33.536Z,9.10
2017-11-21T20:32:01.675Z,9.10
2017-11-21T20:34:29.458Z,8.50
2017-11-21T20:36:57.124Z,9.13
2017-11-21T20:39:24.897Z,6.67
2017-11-21T20:41:52.803Z,7.47
2017-11-21T20:44:20.586Z,7.27
2017-11-21T20:46:48.365Z,8.10
2017-11-21T20:49:16.154Z,7.60
2017-11-21T20:51:44.512Z,6.80
2017-11-21T20:54:12.181Z,8.37
2017-11-21T20:56:40.797Z,6.87
2017-11-21T20:59:08.467Z,8.07
2017-11-21T21:01:36.258Z,8.70
2017-11-21T21:04:04.582Z,8.50
2017-11-21T21:06:32.964Z,8.27
2017-11-21T21:09:00.678Z,8.00
2017-11-21T21:11:28.435Z,8.17
2017-11-21T21:13:56.174Z,8.50
2017-11-21T21:16:24.098Z,8.47
2017-11-21T21:18:51.882Z,8.30
2017-11-21T21:21:20.353Z,9.40
2017-11-21T21:23:48.258Z,8.50
2017-11-21T21:26:15.834Z,8.03
2017-11-21T21:28:44.186Z,8.10
2017-11-21T21:31:11.987Z,9.13
2017-11-21T21:33:41.150Z,7.70
2017-11-21T21:36:08.842Z,7.40
2017-11-21T21:38:36.457Z,8.37
2017-11-21T21:41:04.504Z,7.70
2017-11-21T21:43:32.209Z,8.03
2017-11-21T21:45:59.944Z,8.10
2017-11-21T21:48:27.717Z,7.67
2017-11-21T21:50:55.375Z,8.00
2017-11-21T21:53:22.989Z,8.10
2017-11-21T21:55:51.358Z,8.47
2017-11-21T21:58:18.914Z,7.37
2017-11-21T22:00:46.476Z,7.77
2017-11-21T22:03:14.189Z,7.57
2017-11-21T22:05:41.801Z,7.90
2017-11-21T22:08:10.558Z,7.90
2017-11-21T22:10:38.259Z,7.67
2017-11-21T22:13:05.916Z,7.73
2017-11-21T22:15:33.519Z,6.63
2017-11-21T22:18:01.091Z,7.17
2017-11-21T22:20:28.778Z,7.10
2017-11-21T22:22:56.374Z,6.90
2017-11-21T22:25:23.991Z,6.87
2017-11-21T22:27:51.561Z,6.80
2017-11-21T22:30:19.171Z,7.77
2017-11-21T22:32:46.806Z,7.80
2017-11-21T22:35:14.393Z,6.90
2017-11-21T22:37:42.016Z,6.77
2017-11-21T22:40:09.626Z,7.13
2017-11-21T22:42:37.227Z,7.37
2017-11-21T22:45:04.804Z,7.43
2017-11-21T22:47:32.387Z,6.87
2017-11-21T22:49:59.984Z,7.10
2017-11-21T22:52:28.324Z,7.03
2017-11-21T22:54:55.927Z,7.37
2017-11-21T22:57:24.478Z,6.50
2017-11-21T22:59:52.055Z,6.73
2017-11-21T23:02:19.691Z,8.20
2017-11-21T23:04:47.258Z,7.10
2017-11-21T23:07:14.846Z,7.17
2017-11-21T23:09:42.426Z,8.07
2017-11-21T23:12:10.779Z,7.90
2017-11-21T23:14:39.180Z,6.80
2017-11-21T23:17:07.957Z,7.50
2017-11-21T23:19:35.507Z,6.60
2017-11-21T23:22:03.096Z,7.20
2017-11-21T23:24:31.444Z,7.87
2017-11-21T23:26:59.181Z,7.27
2017-11-21T23:29:26.780Z,8.50
2017-11-21T23:31:55.106Z,7.63
2017-11-21T23:34:22.693Z,7.93
2017-11-21T23:36:50.272Z,8.37
2017-11-21T23:39:17.909Z,8.80
2017-11-21T23:41:45.491Z,9.50
2017-11-21T23:44:13.090Z,9.00
2017-11-21T23:46:41.423Z,9.60
2017-11-21T23:49:09.047Z,9.17
2017-11-21T23:51:38.119Z,8.93
2017-11-21T23:54:05.718Z,8.23
2017-11-21T23:56:33.315Z,8.97
2017-11-21T23:59:00.889Z,8.90
